Time;durP1;ratioP1;P1;durP2;ratioP2;P2;SDS_P1;SDS_P2;PMS_P1;PMS_P2;Temp;Humidity;BMP_temperature;BMP_pressure;BME280_temperature;BME280_humidity;BME280_pressure;Samples;Min_cycle;Max_cycle;Signal;HPM_P1;HPM_P2
2023/01/18 00:01:57;;;;;;;;;;;-0.30;99.90;;;;;;5044172;28;19939;-69
2023/01/18 00:04:23;;;;;;;;;;;-0.20;99.90;;;;;;4982103;28;212016;-69
2023/01/18 00:06:49;;;;;;;;;;;-0.20;99.90;;;;;;5064826;28;19927;-69
2023/01/18 00:09:15;;;;;;;;;;;-0.20;99.90;;;;;;4979178;28;207420;-69
2023/01/18 00:11:40;;;;;;;;;;;-0.30;99.90;;;;;;5057230;28;19921;-69
2023/01/18 00:14:06;;;;;;;;;;;-0.30;99.90;;;;;;5004288;28;237572;-69
2023/01/18 00:16:32;;;;;;;;;;;-0.30;99.90;;;;;;5063587;28;19927;-70
2023/01/18 00:18:58;;;;;;;;;;;-0.30;99.90;;;;;;5009741;28;213597;-69
2023/01/18 00:21:26;;;;;;;;;;;-0.30;99.90;;;;;;5030026;28;19931;-69
2023/01/18 00:23:53;;;;;;;;;;;-0.30;99.90;;;;;;4997178;28;214439;-67
2023/01/18 00:26:19;;;;;;;;;;;-0.20;99.90;;;;;;5052893;28;19925;-69
2023/01/18 00:28:45;;;;;;;;;;;-0.20;99.90;;;;;;4977542;28;227797;-68
2023/01/18 00:31:12;;;;;;;;;;;-0.20;99.90;;;;;;5037916;28;19931;-68
2023/01/18 00:33:41;;;;;;;;;;;-0.20;99.90;;;;;;5010373;28;173143;-68
2023/01/18 00:36:07;;;;;;;;;;;-0.20;99.90;;;;;;5001234;28;20374;-69
2023/01/18 00:38:33;;;;;;;;;;;-0.20;99.90;;;;;;4990603;28;207717;-70
2023/01/18 00:40:58;;;;;;;;;;;-0.20;99.90;;;;;;5050326;28;19931;-68
2023/01/18 00:43:39;;;;;;;;;;;-0.10;99.90;;;;;;5008363;28;215714;-69
2023/01/18 00:46:10;;;;;;;;;;;-0.20;99.90;;;;;;5061426;28;20419;-71
2023/01/18 00:48:37;;;;;;;;;;;-0.20;99.90;;;;;;4994480;28;218016;-68
2023/01/18 00:51:03;;;;;;;;;;;-0.20;99.90;;;;;;5034639;28;19924;-69
2023/01/18 00:53:30;;;;;;;;;;;-0.20;99.90;;;;;;4980042;28;207083;-69
2023/01/18 00:55:56;;;;;;;;;;;-0.20;99.90;;;;;;5042528;28;19924;-69
2023/01/18 00:58:22;;;;;;;;;;;-0.20;99.90;;;;;;5018395;28;208852;-68
2023/01/18 01:00:49;;;;;;;;;;;-0.30;99.90;;;;;;5051363;28;20062;-68
2023/01/18 01:03:15;;;;;;;;;;;-0.20;99.90;;;;;;4982247;28;209296;-69
2023/01/18 01:08:26;;;;;;;;;;;-0.40;99.90;;;;;;4989086;28;98715;-68
2023/01/18 01:11:02;;;;;;;;;;;-0.50;99.90;;;;;;5056684;28;19940;-68
2023/01/18 01:27:11;;;;;;;;;;;-0.50;99.90;;;;;;5043866;28;19925;-67
2023/01/18 01:29:37;;;;;;;;;;;-0.60;99.90;;;;;;4987600;28;207466;-69
2023/01/18 01:32:03;;;;;;;;;;;-0.60;99.90;;;;;;5039443;28;19932;-67
2023/01/18 01:34:30;;;;;;;;;;;-0.50;99.90;;;;;;4987440;28;207148;-68
2023/01/18 01:36:56;;;;;;;;;;;-0.60;99.90;;;;;;5043410;28;19934;-67
2023/01/18 01:39:22;;;;;;;;;;;-0.60;99.90;;;;;;4990034;28;209073;-67
2023/01/18 01:41:48;;;;;;;;;;;-0.60;99.90;;;;;;5047152;28;19975;-68
2023/01/18 01:44:35;;;;;;;;;;;-0.70;99.90;;;;;;5004532;28;211616;-69
2023/01/18 01:47:03;;;;;;;;;;;-0.70;99.90;;;;;;5031582;28;20286;-69
2023/01/18 01:49:32;;;;;;;;;;;-0.70;99.90;;;;;;4985719;28;213233;-68
2023/01/18 01:51:58;;;;;;;;;;;-0.70;99.90;;;;;;5040506;28;19924;-69
2023/01/18 01:54:25;;;;;;;;;;;-0.80;99.90;;;;;;4999076;28;208727;-67
2023/01/18 01:56:54;;;;;;;;;;;-0.80;99.90;;;;;;5061640;28;19932;-69
2023/01/18 01:59:20;;;;;;;;;;;-0.80;99.90;;;;;;5004684;28;207472;-69
2023/01/18 02:01:46;;;;;;;;;;;-0.80;99.90;;;;;;5056906;28;19925;-69
2023/01/18 02:04:12;;;;;;;;;;;-0.80;99.90;;;;;;4985219;28;211296;-68
2023/01/18 02:06:38;;;;;;;;;;;-0.80;99.90;;;;;;5059055;28;19931;-68
2023/01/18 02:09:12;;;;;;;;;;;-0.90;99.90;;;;;;4988755;28;192047;-69
2023/01/18 02:11:38;;;;;;;;;;;-0.90;99.90;;;;;;5039534;28;20879;-68
2023/01/18 02:14:07;;;;;;;;;;;-0.80;99.90;;;;;;4995363;28;215566;-66
2023/01/18 02:16:33;;;;;;;;;;;-0.90;99.90;;;;;;5065511;28;19920;-67
2023/01/18 02:19:08;;;;;;;;;;;-0.90;99.90;;;;;;5004011;28;206385;-68
2023/01/18 02:21:45;;;;;;;;;;;-0.90;99.90;;;;;;5075857;28;19951;-67
2023/01/18 02:24:36;;;;;;;;;;;-1.00;99.90;;;;;;5009569;28;207297;-67
2023/01/18 02:27:08;;;;;;;;;;;-1.00;99.90;;;;;;5064245;28;19920;-67
2023/01/18 02:29:49;;;;;;;;;;;-0.90;99.90;;;;;;4959757;28;206550;-68
2023/01/18 02:32:25;;;;;;;;;;;-0.90;99.90;;;;;;5036006;28;20501;-67
2023/01/18 02:35:00;;;;;;;;;;;-1.00;99.90;;;;;;4981578;28;206697;-67
2023/01/18 02:37:29;;;;;;;;;;;-0.90;99.90;;;;;;5020626;28;206533;-68
2023/01/18 02:39:58;;;;;;;;;;;-0.90;99.90;;;;;;4977990;28;20477;-68
2023/01/18 02:48:15;;;;;;;;;;;-0.90;99.90;;;;;;4998398;28;213634;-68
2023/01/18 02:50:41;;;;;;;;;;;-0.90;99.90;;;;;;5067328;28;20389;-67
2023/01/18 02:53:11;;;;;;;;;;;-0.90;99.90;;;;;;5016280;28;208291;-67
2023/01/18 02:55:48;;;;;;;;;;;-1.00;99.90;;;;;;5062678;28;19924;-68
2023/01/18 02:58:27;;;;;;;;;;;-0.90;99.90;;;;;;5009793;28;231072;-69
2023/01/18 03:01:00;;;;;;;;;;;-1.00;99.90;;;;;;5066311;28;19935;-69
2023/01/18 03:03:27;;;;;;;;;;;-1.00;99.90;;;;;;5000836;28;209501;-69
2023/01/18 03:05:54;;;;;;;;;;;-1.00;99.90;;;;;;5064658;28;19933;-68
2023/01/18 03:08:24;;;;;;;;;;;-1.00;99.90;;;;;;5014138;28;209496;-68
2023/01/18 03:10:59;;;;;;;;;;;-1.00;99.90;;;;;;5064396;28;19931;-69
2023/01/18 03:13:29;;;;;;;;;;;-0.90;99.90;;;;;;5011103;28;53557;-69
2023/01/18 03:15:59;;;;;;;;;;;-1.00;99.90;;;;;;5035728;28;19925;-68
2023/01/18 03:18:34;;;;;;;;;;;-1.00;99.90;;;;;;4980675;28;211835;-68
2023/01/18 03:21:04;;;;;;;;;;;-1.00;99.90;;;;;;5035627;28;20660;-68
2023/01/18 03:23:38;;;;;;;;;;;-1.00;99.90;;;;;;5001999;28;208854;-68
2023/01/18 03:26:06;;;;;;;;;;;-1.00;99.90;;;;;;5054509;28;19983;-69
2023/01/18 03:34:21;;;;;;;;;;;-1.00;99.90;;;;;;4990587;28;205199;-67
2023/01/18 03:36:51;;;;;;;;;;;-1.10;99.90;;;;;;5041105;28;19928;-68
2023/01/18 03:39:19;;;;;;;;;;;-1.10;99.90;;;;;;5002447;28;61628;-67
2023/01/18 03:41:49;;;;;;;;;;;-1.10;99.90;;;;;;5062716;28;20423;-66
2023/01/18 03:44:19;;;;;;;;;;;-1.10;99.90;;;;;;5009352;28;207847;-69
2023/01/18 03:46:45;;;;;;;;;;;-1.20;99.90;;;;;;5042962;28;19933;-68
2023/01/18 03:49:11;;;;;;;;;;;-1.20;99.90;;;;;;5008132;28;207812;-68
2023/01/18 03:51:37;;;;;;;;;;;-1.20;99.90;;;;;;5043335;28;20400;-69
2023/01/18 03:54:10;;;;;;;;;;;-1.20;99.90;;;;;;4955679;28;212220;-67
2023/01/18 03:56:49;;;;;;;;;;;-1.20;99.90;;;;;;5029550;28;19936;-69
2023/01/18 03:59:15;;;;;;;;;;;-1.20;99.90;;;;;;4970452;28;209900;-66
2023/01/18 04:01:43;;;;;;;;;;;-1.20;99.90;;;;;;5046022;28;20305;-70
2023/01/18 04:04:10;;;;;;;;;;;-1.20;99.90;;;;;;4973991;28;95291;-68
2023/01/18 04:06:36;;;;;;;;;;;-1.20;99.90;;;;;;5054909;28;19933;-68
2023/01/18 04:09:02;;;;;;;;;;;-1.10;99.90;;;;;;5005511;28;238966;-68
2023/01/18 04:11:27;;;;;;;;;;;-1.10;99.90;;;;;;5043759;28;20592;-67
2023/01/18 04:13:53;;;;;;;;;;;-1.10;99.90;;;;;;4968211;28;219336;-68
2023/01/18 04:16:19;;;;;;;;;;;-1.10;99.90;;;;;;5022153;28;19943;-69
2023/01/18 04:18:45;;;;;;;;;;;-1.10;99.90;;;;;;4996270;28;212786;-68
2023/01/18 04:21:11;;;;;;;;;;;-1.10;99.90;;;;;;5047610;28;19978;-68
2023/01/18 04:23:37;;;;;;;;;;;-1.20;99.90;;;;;;4979705;28;208779;-68
2023/01/18 04:26:03;;;;;;;;;;;-1.20;99.90;;;;;;5052655;28;19970;-67
2023/01/18 04:28:29;;;;;;;;;;;-1.20;99.90;;;;;;4993705;28;54186;-68
2023/01/18 04:30:55;;;;;;;;;;;-1.20;99.90;;;;;;5038213;28;20876;-68
2023/01/18 04:33:22;;;;;;;;;;;-1.20;99.90;;;;;;5002086;28;213592;-68
2023/01/18 04:35:49;;;;;;;;;;;-1.30;99.90;;;;;;5049114;28;20328;-68
2023/01/18 04:38:15;;;;;;;;;;;-1.30;99.90;;;;;;4984900;28;204308;-69
2023/01/18 04:40:41;;;;;;;;;;;-1.20;99.90;;;;;;5049539;28;19928;-67
2023/01/18 04:43:07;;;;;;;;;;;-1.20;99.90;;;;;;4981502;28;207486;-69
2023/01/18 04:45:33;;;;;;;;;;;-1.30;99.90;;;;;;5036047;28;20297;-68
2023/01/18 04:47:59;;;;;;;;;;;-1.30;99.90;;;;;;4986222;28;212610;-68
2023/01/18 04:50:25;;;;;;;;;;;-1.30;99.90;;;;;;5027044;28;19932;-68
2023/01/18 04:52:51;;;;;;;;;;;-1.30;99.90;;;;;;4983957;28;106594;-68
2023/01/18 04:55:17;;;;;;;;;;;-1.30;99.90;;;;;;5061595;28;20453;-69
2023/01/18 04:57:43;;;;;;;;;;;-1.30;99.90;;;;;;4990476;28;205760;-68
2023/01/18 05:00:11;;;;;;;;;;;-1.40;99.90;;;;;;5073369;28;19936;-70
2023/01/18 05:02:37;;;;;;;;;;;-1.30;99.90;;;;;;4994104;28;207202;-68
2023/01/18 05:05:03;;;;;;;;;;;-1.40;99.90;;;;;;5043967;28;19935;-67
2023/01/18 05:07:32;;;;;;;;;;;-1.30;99.90;;;;;;5037482;28;209857;-68
2023/01/18 05:10:02;;;;;;;;;;;-1.30;99.90;;;;;;5051655;28;19932;-68
2023/01/18 05:12:28;;;;;;;;;;;-1.30;99.90;;;;;;5040869;28;205011;-67
2023/01/18 05:14:55;;;;;;;;;;;-1.40;99.90;;;;;;4980320;28;19923;-68
2023/01/18 05:17:26;;;;;;;;;;;-1.40;99.90;;;;;;5067501;28;19927;-68
2023/01/18 05:19:53;;;;;;;;;;;-1.40;99.90;;;;;;4993497;28;204732;-68
2023/01/18 05:22:19;;;;;;;;;;;-1.40;99.90;;;;;;5062365;28;19924;-69
2023/01/18 05:24:45;;;;;;;;;;;-1.40;99.90;;;;;;5030695;28;205410;-68
2023/01/18 05:27:12;;;;;;;;;;;-1.50;99.90;;;;;;5047033;28;20428;-67
2023/01/18 05:29:38;;;;;;;;;;;-1.50;99.90;;;;;;4983556;28;169646;-67
2023/01/18 05:32:05;;;;;;;;;;;-1.50;99.90;;;;;;5045466;28;19927;-69
2023/01/18 05:34:31;;;;;;;;;;;-1.50;99.90;;;;;;5001626;28;208168;-68
2023/01/18 05:36:57;;;;;;;;;;;-1.60;99.90;;;;;;5039937;28;19929;-69
2023/01/18 05:39:23;;;;;;;;;;;-1.60;99.90;;;;;;5022776;28;208218;-68
2023/01/18 05:41:49;;;;;;;;;;;-1.60;99.90;;;;;;5062074;28;19935;-69
2023/01/18 05:44:15;;;;;;;;;;;-1.60;99.90;;;;;;5001594;28;207854;-68
2023/01/18 05:46:41;;;;;;;;;;;-1.60;99.90;;;;;;5039520;28;19964;-66
2023/01/18 05:49:07;;;;;;;;;;;-1.60;99.90;;;;;;4993196;28;209015;-68
2023/01/18 05:51:34;;;;;;;;;;;-1.60;99.90;;;;;;5042574;28;19947;-69
2023/01/18 05:54:00;;;;;;;;;;;-1.60;99.90;;;;;;4993696;28;207912;-67
2023/01/18 05:56:26;;;;;;;;;;;-1.60;99.90;;;;;;5061219;28;19990;-67
2023/01/18 05:58:52;;;;;;;;;;;-1.60;99.90;;;;;;5013961;28;213390;-68
2023/01/18 06:01:18;;;;;;;;;;;-1.60;99.90;;;;;;5066291;28;19924;-69
2023/01/18 06:03:44;;;;;;;;;;;-1.60;99.90;;;;;;5008467;28;207520;-67
2023/01/18 06:06:10;;;;;;;;;;;-1.60;99.90;;;;;;5052932;28;20057;-67
2023/01/18 06:08:36;;;;;;;;;;;-1.60;99.90;;;;;;4996578;28;207785;-68
2023/01/18 06:11:03;;;;;;;;;;;-1.60;99.90;;;;;;5039470;28;19972;-67
2023/01/18 06:13:29;;;;;;;;;;;-1.60;99.90;;;;;;4991578;28;209921;-68
2023/01/18 06:15:56;;;;;;;;;;;-1.60;99.90;;;;;;5039355;28;19943;-68
2023/01/18 06:18:23;;;;;;;;;;;-1.60;99.90;;;;;;4978704;28;158660;-67
2023/01/18 06:20:53;;;;;;;;;;;-1.60;99.90;;;;;;5041036;28;19924;-66
2023/01/18 06:23:19;;;;;;;;;;;-1.60;99.90;;;;;;4992208;28;236387;-67
2023/01/18 06:25:45;;;;;;;;;;;-1.50;99.90;;;;;;5047777;28;19932;-70
2023/01/18 06:28:11;;;;;;;;;;;-1.50;99.90;;;;;;4993880;28;207360;-67
2023/01/18 06:30:37;;;;;;;;;;;-1.50;99.90;;;;;;5043711;28;19926;-67
2023/01/18 06:33:05;;;;;;;;;;;-1.50;99.90;;;;;;5002170;28;154309;-67
2023/01/18 06:35:32;;;;;;;;;;;-1.40;99.90;;;;;;5063965;28;19924;-67
2023/01/18 06:37:58;;;;;;;;;;;-1.40;99.90;;;;;;5006571;28;217158;-67
2023/01/18 06:40:24;;;;;;;;;;;-1.40;99.90;;;;;;5045252;28;20594;-67
2023/01/18 06:42:50;;;;;;;;;;;-1.40;99.90;;;;;;4998645;28;213419;-68
2023/01/18 06:45:18;;;;;;;;;;;-1.30;99.90;;;;;;5058265;28;20471;-67
2023/01/18 06:47:44;;;;;;;;;;;-1.30;99.90;;;;;;4968705;28;212790;-66
2023/01/18 06:50:10;;;;;;;;;;;-1.30;99.90;;;;;;5013746;28;19924;-67
2023/01/18 06:52:36;;;;;;;;;;;-1.30;99.90;;;;;;5005953;28;207909;-68
2023/01/18 06:55:02;;;;;;;;;;;-1.30;99.90;;;;;;5044646;28;19921;-68
2023/01/18 06:57:28;;;;;;;;;;;-1.30;99.90;;;;;;5045678;28;211591;-69
2023/01/18 06:59:54;;;;;;;;;;;-1.30;99.90;;;;;;5005682;28;251182;-70
2023/01/18 07:02:20;;;;;;;;;;;-1.20;99.90;;;;;;5060662;28;19920;-70
2023/01/18 07:04:46;;;;;;;;;;;-1.20;99.90;;;;;;5003256;28;202065;-70
2023/01/18 07:07:15;;;;;;;;;;;-1.20;99.90;;;;;;5045951;28;20154;-69
2023/01/18 07:09:41;;;;;;;;;;;-1.20;99.90;;;;;;4994655;28;220373;-69
2023/01/18 07:12:07;;;;;;;;;;;-1.20;99.90;;;;;;5028650;28;19920;-70
2023/01/18 07:14:34;;;;;;;;;;;-1.10;99.90;;;;;;4997758;28;208023;-70
2023/01/18 07:17:03;;;;;;;;;;;-1.20;99.90;;;;;;5032783;28;19927;-69
2023/01/18 07:19:29;;;;;;;;;;;-1.20;99.90;;;;;;4997358;28;207321;-70
2023/01/18 07:21:56;;;;;;;;;;;-1.20;99.90;;;;;;5043732;28;20333;-69
2023/01/18 07:24:25;;;;;;;;;;;-1.10;99.90;;;;;;4965736;28;201625;-69
2023/01/18 07:26:51;;;;;;;;;;;-1.10;99.90;;;;;;5060261;28;19932;-70
2023/01/18 07:29:20;;;;;;;;;;;-1.10;99.90;;;;;;4987080;28;207762;-70
2023/01/18 07:31:49;;;;;;;;;;;-1.10;99.90;;;;;;5026244;28;19928;-70
2023/01/18 07:34:15;;;;;;;;;;;-1.10;99.90;;;;;;4976882;28;221477;-68
2023/01/18 07:36:41;;;;;;;;;;;-1.00;99.90;;;;;;5040559;28;20397;-70
2023/01/18 07:39:07;;;;;;;;;;;-1.00;99.90;;;;;;4996968;28;262721;-70
2023/01/18 07:41:33;;;;;;;;;;;-1.00;99.90;;;;;;5047952;28;19921;-70
2023/01/18 07:43:59;;;;;;;;;;;-0.90;99.90;;;;;;4993139;28;210454;-69
2023/01/18 07:46:25;;;;;;;;;;;-0.90;99.90;;;;;;5042007;28;19929;-70
2023/01/18 07:49:07;;;;;;;;;;;-0.90;99.90;;;;;;5015130;28;211816;-71
2023/01/18 07:51:33;;;;;;;;;;;-0.90;99.90;;;;;;5028525;28;19948;-69
2023/01/18 07:53:59;;;;;;;;;;;-0.90;99.90;;;;;;4974896;28;198522;-69
2023/01/18 07:56:26;;;;;;;;;;;-0.80;99.90;;;;;;5048537;28;19978;-69
2023/01/18 07:58:53;;;;;;;;;;;-0.80;99.90;;;;;;4997793;28;211697;-69
2023/01/18 08:01:20;;;;;;;;;;;-0.70;99.90;;;;;;5064147;28;19920;-69
2023/01/18 08:03:46;;;;;;;;;;;-0.70;99.90;;;;;;4967343;28;206441;-69
2023/01/18 08:06:15;;;;;;;;;;;-0.70;99.90;;;;;;5041329;28;20344;-69
2023/01/18 08:08:41;;;;;;;;;;;-0.70;99.90;;;;;;5003216;28;205475;-70
2023/01/18 08:11:08;;;;;;;;;;;-0.70;99.90;;;;;;5071295;28;19931;-70
2023/01/18 08:13:34;;;;;;;;;;;-0.60;99.90;;;;;;5007139;28;210297;-69
2023/01/18 08:16:00;;;;;;;;;;;-0.60;99.90;;;;;;5074614;28;19927;-70
2023/01/18 08:18:26;;;;;;;;;;;-0.60;99.90;;;;;;4997230;28;153762;-70
2023/01/18 08:20:52;;;;;;;;;;;-0.60;99.90;;;;;;5040083;28;20281;-70
2023/01/18 08:23:18;;;;;;;;;;;-0.50;99.90;;;;;;4996080;28;207768;-69
2023/01/18 08:25:46;;;;;;;;;;;-0.50;99.90;;;;;;5052754;28;19928;-68
2023/01/18 08:28:12;;;;;;;;;;;-0.50;99.90;;;;;;5012741;28;248149;-69
2023/01/18 08:30:40;;;;;;;;;;;-0.50;99.90;;;;;;5059057;28;19920;-70
2023/01/18 08:33:06;;;;;;;;;;;-0.50;99.90;;;;;;5025832;28;207633;-71
2023/01/18 08:35:38;;;;;;;;;;;-0.50;99.90;;;;;;5052381;28;19924;-70
2023/01/18 08:38:04;;;;;;;;;;;-0.40;99.90;;;;;;5021660;28;214561;-69
2023/01/18 08:40:30;;;;;;;;;;;-0.40;99.90;;;;;;5056909;28;19936;-70
2023/01/18 08:42:57;;;;;;;;;;;-0.40;99.90;;;;;;5015652;28;228344;-70
2023/01/18 08:45:24;;;;;;;;;;;-0.30;99.90;;;;;;5064409;28;20309;-70
2023/01/18 08:47:59;;;;;;;;;;;-0.30;99.90;;;;;;5016319;28;208075;-70
2023/01/18 08:50:26;;;;;;;;;;;-0.30;99.90;;;;;;5071807;28;19928;-69
2023/01/18 08:52:52;;;;;;;;;;;-0.20;99.90;;;;;;5018047;28;207877;-70
2023/01/18 08:55:18;;;;;;;;;;;-0.20;99.90;;;;;;5075422;28;20296;-69
2023/01/18 08:57:44;;;;;;;;;;;-0.10;99.90;;;;;;5013568;28;202206;-69
2023/01/18 09:00:10;;;;;;;;;;;-0.20;99.90;;;;;;5078579;28;19917;-70
2023/01/18 09:02:36;;;;;;;;;;;-0.10;99.90;;;;;;4986810;28;207558;-70
2023/01/18 09:05:02;;;;;;;;;;;-0.10;99.90;;;;;;5060755;28;19917;-70
2023/01/18 09:07:28;;;;;;;;;;;-0.10;99.90;;;;;;5031053;28;210228;-70
2023/01/18 09:09:54;;;;;;;;;;;-0.10;99.90;;;;;;5005057;28;259949;-70
2023/01/18 09:12:20;;;;;;;;;;;0.00;99.90;;;;;;5060359;28;19931;-70
2023/01/18 09:14:46;;;;;;;;;;;0.00;99.90;;;;;;4995770;28;206578;-70
2023/01/18 09:17:13;;;;;;;;;;;0.00;99.90;;;;;;5064323;28;19924;-69
2023/01/18 09:19:39;;;;;;;;;;;0.00;99.90;;;;;;4998664;28;212044;-69
2023/01/18 09:22:05;;;;;;;;;;;0.00;99.90;;;;;;5050975;28;20003;-70
2023/01/18 09:24:31;;;;;;;;;;;0.10;99.90;;;;;;5015039;28;207483;-70
2023/01/18 09:26:57;;;;;;;;;;;0.10;99.90;;;;;;5050523;28;19940;-68
2023/01/18 09:29:23;;;;;;;;;;;0.10;99.90;;;;;;4993192;28;210921;-69
2023/01/18 09:31:52;;;;;;;;;;;0.20;99.90;;;;;;5065098;28;20277;-70
2023/01/18 09:34:18;;;;;;;;;;;0.20;99.90;;;;;;5028096;28;209779;-70
2023/01/18 09:36:45;;;;;;;;;;;0.20;99.90;;;;;;5061167;28;20344;-70
2023/01/18 09:39:10;;;;;;;;;;;0.20;99.90;;;;;;4985083;28;207485;-69
2023/01/18 09:41:38;;;;;;;;;;;0.20;99.90;;;;;;5040185;28;19929;-71
2023/01/18 09:44:27;;;;;;;;;;;0.30;99.90;;;;;;5007115;28;205526;-70
2023/01/18 09:46:56;;;;;;;;;;;0.30;99.90;;;;;;5030709;28;19944;-70
2023/01/18 09:49:34;;;;;;;;;;;0.40;99.90;;;;;;5025842;28;220220;-70
2023/01/18 09:52:03;;;;;;;;;;;0.40;99.90;;;;;;5068061;28;19928;-71
2023/01/18 09:54:42;;;;;;;;;;;0.50;99.90;;;;;;4989807;28;207848;-70
2023/01/18 09:57:26;;;;;;;;;;;0.50;99.90;;;;;;5063789;28;20404;-70
2023/01/18 09:59:57;;;;;;;;;;;0.60;99.90;;;;;;4996799;28;205298;-70
2023/01/18 10:02:24;;;;;;;;;;;0.60;99.90;;;;;;5064518;28;19929;-70
2023/01/18 10:04:52;;;;;;;;;;;0.70;99.90;;;;;;4999291;28;230748;-70
2023/01/18 10:07:19;;;;;;;;;;;0.70;99.90;;;;;;5063317;28;20388;-70
2023/01/18 10:09:51;;;;;;;;;;;0.80;99.90;;;;;;4972787;28;189414;-71
2023/01/18 10:12:22;;;;;;;;;;;0.90;99.90;;;;;;5011420;28;19939;-70
2023/01/18 10:14:53;;;;;;;;;;;0.90;99.90;;;;;;4990302;28;206586;-71
2023/01/18 10:17:34;;;;;;;;;;;1.00;99.90;;;;;;5060334;28;19929;-69
2023/01/18 10:20:07;;;;;;;;;;;1.10;99.90;;;;;;4985412;28;206005;-70
2023/01/18 10:22:37;;;;;;;;;;;1.10;99.90;;;;;;4988620;28;208559;-69
2023/01/18 10:25:09;;;;;;;;;;;1.20;99.90;;;;;;5062204;28;19927;-70
2023/01/18 10:27:42;;;;;;;;;;;1.20;99.90;;;;;;4975345;28;228221;-70
2023/01/18 10:30:27;;;;;;;;;;;1.30;99.90;;;;;;5068301;28;20479;-70
2023/01/18 10:33:01;;;;;;;;;;;1.30;99.90;;;;;;5008457;28;208361;-70
2023/01/18 10:35:35;;;;;;;;;;;1.40;99.90;;;;;;5070437;28;20386;-70
2023/01/18 10:38:03;;;;;;;;;;;1.40;99.90;;;;;;5013202;28;225809;-70
2023/01/18 10:40:29;;;;;;;;;;;1.50;99.90;;;;;;5063228;28;20325;-71
2023/01/18 10:42:58;;;;;;;;;;;1.50;99.90;;;;;;4992127;28;52940;-70
2023/01/18 10:45:27;;;;;;;;;;;1.50;99.90;;;;;;5011059;28;19925;-70
2023/01/18 10:47:54;;;;;;;;;;;1.60;99.90;;;;;;4983077;28;213296;-71
2023/01/18 10:50:38;;;;;;;;;;;1.70;99.90;;;;;;5033080;28;20301;-71
2023/01/18 10:53:20;;;;;;;;;;;1.70;99.90;;;;;;4991500;28;210044;-70
2023/01/18 10:55:54;;;;;;;;;;;1.80;99.90;;;;;;5014319;28;19931;-70
2023/01/18 10:58:25;;;;;;;;;;;1.80;99.90;;;;;;4989217;28;207343;-71
2023/01/18 11:00:52;;;;;;;;;;;1.90;99.90;;;;;;5052584;28;19932;-71
2023/01/18 11:03:18;;;;;;;;;;;1.90;99.90;;;;;;4993376;28;207194;-72
2023/01/18 11:05:44;;;;;;;;;;;1.90;99.90;;;;;;5051868;28;19920;-72
2023/01/18 11:08:24;;;;;;;;;;;2.00;99.90;;;;;;4999293;28;208808;-72
2023/01/18 11:11:00;;;;;;;;;;;2.10;99.90;;;;;;5047451;28;19948;-71
2023/01/18 11:13:26;;;;;;;;;;;2.10;99.90;;;;;;4978224;28;201942;-71
2023/01/18 11:16:08;;;;;;;;;;;2.10;99.90;;;;;;5030599;28;19948;-71
2023/01/18 11:18:34;;;;;;;;;;;2.20;99.90;;;;;;4990362;28;207509;-72
2023/01/18 11:21:00;;;;;;;;;;;2.20;99.90;;;;;;5055306;28;20045;-72
2023/01/18 11:23:29;;;;;;;;;;;2.30;99.90;;;;;;4981521;28;201617;-73
2023/01/18 11:25:57;;;;;;;;;;;2.40;99.90;;;;;;5050039;28;21251;-73
2023/01/18 11:28:25;;;;;;;;;;;2.40;99.90;;;;;;5012191;28;108691;-72
2023/01/18 11:30:56;;;;;;;;;;;2.50;99.90;;;;;;5072288;28;19929;-72
2023/01/18 11:33:23;;;;;;;;;;;2.60;99.90;;;;;;5013959;28;208845;-71
2023/01/18 11:35:54;;;;;;;;;;;2.70;99.90;;;;;;5053705;28;19928;-71
2023/01/18 11:38:20;;;;;;;;;;;2.80;99.90;;;;;;4977884;28;212147;-71
2023/01/18 11:40:47;;;;;;;;;;;2.80;99.90;;;;;;5019150;28;19929;-72
2023/01/18 11:43:21;;;;;;;;;;;2.90;99.90;;;;;;4987200;28;216331;-72
2023/01/18 11:45:53;;;;;;;;;;;2.90;99.90;;;;;;5040078;28;19928;-70
2023/01/18 11:48:39;;;;;;;;;;;3.00;99.90;;;;;;4988502;28;199021;-71
2023/01/18 11:51:09;;;;;;;;;;;3.10;99.90;;;;;;5025907;28;19925;-71
2023/01/18 11:53:35;;;;;;;;;;;3.10;99.90;;;;;;5006295;28;205111;-73
2023/01/18 11:56:07;;;;;;;;;;;3.10;99.90;;;;;;5043917;28;20313;-73
2023/01/18 11:58:34;;;;;;;;;;;3.20;99.90;;;;;;4993523;28;88191;-73
2023/01/18 12:01:20;;;;;;;;;;;3.20;99.90;;;;;;5023763;28;19939;-73
2023/01/18 12:03:48;;;;;;;;;;;3.30;99.90;;;;;;4984045;28;211238;-74
2023/01/18 12:06:21;;;;;;;;;;;3.40;99.90;;;;;;5036951;28;19936;-74
2023/01/18 12:08:50;;;;;;;;;;;3.40;99.90;;;;;;4996924;28;212240;-74
2023/01/18 12:11:30;;;;;;;;;;;3.40;99.90;;;;;;5031150;28;20352;-74
2023/01/18 12:14:02;;;;;;;;;;;3.40;99.90;;;;;;4974491;28;206825;-73
2023/01/18 12:16:27;;;;;;;;;;;3.40;99.90;;;;;;5039471;28;19932;-73
2023/01/18 12:19:08;;;;;;;;;;;3.40;99.90;;;;;;4998010;28;206299;-72
2023/01/18 12:22:01;;;;;;;;;;;3.40;99.90;;;;;;5033246;28;20305;-72
2023/01/18 12:24:30;;;;;;;;;;;3.40;99.90;;;;;;4990236;28;205232;-72
2023/01/18 12:26:58;;;;;;;;;;;3.70;99.90;;;;;;5037006;28;19925;-72
2023/01/18 12:29:35;;;;;;;;;;;5.30;99.90;;;;;;5007126;28;236896;-72
2023/01/18 12:32:12;;;;;;;;;;;6.60;99.90;;;;;;5039122;28;19947;-73
2023/01/18 12:34:41;;;;;;;;;;;7.20;99.90;;;;;;4995954;28;206284;-73
2023/01/18 12:37:22;;;;;;;;;;;7.90;99.90;;;;;;5039223;28;19932;-74
2023/01/18 12:39:51;;;;;;;;;;;7.90;99.90;;;;;;4988163;28;210660;-74
2023/01/18 12:42:18;;;;;;;;;;;7.80;99.90;;;;;;5044722;28;19929;-74
2023/01/18 12:45:05;;;;;;;;;;;7.70;99.90;;;;;;4989043;28;208519;-74
2023/01/18 12:47:36;;;;;;;;;;;8.30;99.90;;;;;;4996438;28;202783;-73
2023/01/18 12:50:11;;;;;;;;;;;8.50;99.90;;;;;;5018788;28;19921;-73
2023/01/18 12:52:45;;;;;;;;;;;8.90;99.90;;;;;;4989116;28;194423;-73
2023/01/18 12:55:20;;;;;;;;;;;9.00;99.90;;;;;;5052964;28;19932;-72
2023/01/18 12:57:50;;;;;;;;;;;9.30;99.90;;;;;;4990409;28;212117;-73
2023/01/18 13:00:23;;;;;;;;;;;9.40;99.90;;;;;;5058730;28;19929;-73
2023/01/18 13:02:51;;;;;;;;;;;9.30;99.70;;;;;;4987542;28;207729;-71
2023/01/18 13:05:21;;;;;;;;;;;9.40;99.90;;;;;;5065265;28;19928;-72
2023/01/18 13:07:57;;;;;;;;;;;9.50;99.90;;;;;;5007327;28;207066;-72
2023/01/18 13:10:24;;;;;;;;;;;8.50;99.90;;;;;;5051869;28;19971;-72
2023/01/18 13:12:51;;;;;;;;;;;8.50;99.90;;;;;;5009031;28;233193;-72
2023/01/18 13:15:20;;;;;;;;;;;9.00;99.90;;;;;;5051172;28;20140;-72
2023/01/18 13:17:58;;;;;;;;;;;8.80;99.90;;;;;;5008234;28;207515;-72
2023/01/18 13:20:33;;;;;;;;;;;7.80;99.90;;;;;;5024226;28;20400;-72
2023/01/18 13:22:59;;;;;;;;;;;7.00;99.90;;;;;;4992189;28;176750;-72
2023/01/18 13:25:43;;;;;;;;;;;6.30;99.90;;;;;;5045228;28;19924;-72
2023/01/18 13:28:16;;;;;;;;;;;5.70;99.90;;;;;;5004933;28;219862;-71
2023/01/18 13:30:59;;;;;;;;;;;5.30;99.90;;;;;;5049224;28;19929;-71
2023/01/18 13:33:26;;;;;;;;;;;5.00;99.90;;;;;;5012973;28;206486;-71
2023/01/18 13:35:57;;;;;;;;;;;4.80;99.90;;;;;;5055148;28;20308;-71
2023/01/18 13:38:24;;;;;;;;;;;4.70;99.90;;;;;;4998283;28;79823;-70
2023/01/18 13:40:51;;;;;;;;;;;4.60;99.90;;;;;;5040601;28;19924;-70
2023/01/18 13:43:53;;;;;;;;;;;4.50;99.90;;;;;;4987188;28;213954;-70
2023/01/18 13:46:20;;;;;;;;;;;4.60;99.90;;;;;;5019026;28;19925;-70
2023/01/18 13:48:46;;;;;;;;;;;5.00;99.90;;;;;;4957959;28;96739;-70
2023/01/18 13:51:38;;;;;;;;;;;4.90;99.90;;;;;;5020012;28;19925;-71
2023/01/18 13:54:05;;;;;;;;;;;4.60;99.90;;;;;;4945661;28;186830;-69
2023/01/18 13:56:32;;;;;;;;;;;4.50;99.90;;;;;;5011029;28;19964;-69
2023/01/18 13:59:00;;;;;;;;;;;4.40;99.90;;;;;;4963926;28;145372;-70
2023/01/18 14:01:31;;;;;;;;;;;4.40;99.90;;;;;;5010209;28;19929;-71
2023/01/18 14:04:03;;;;;;;;;;;4.30;99.90;;;;;;4962384;28;129347;-71
2023/01/18 14:06:29;;;;;;;;;;;4.20;99.90;;;;;;5023718;28;19925;-70
2023/01/18 14:09:00;;;;;;;;;;;4.20;99.90;;;;;;4951155;28;185439;-70
2023/01/18 14:11:30;;;;;;;;;;;4.10;99.90;;;;;;5016765;28;19944;-69
2023/01/18 14:13:56;;;;;;;;;;;4.10;99.90;;;;;;4964564;28;193249;-71
2023/01/18 14:16:24;;;;;;;;;;;4.10;99.90;;;;;;5003447;28;19929;-70
2023/01/18 14:18:54;;;;;;;;;;;4.00;99.90;;;;;;4960054;28;211437;-69
2023/01/18 14:21:25;;;;;;;;;;;4.00;99.90;;;;;;5041236;28;19932;-70
2023/01/18 14:23:55;;;;;;;;;;;4.00;99.90;;;;;;5008603;28;211014;-71
2023/01/18 14:26:21;;;;;;;;;;;4.00;99.90;;;;;;5044545;28;19931;-71
2023/01/18 14:28:47;;;;;;;;;;;4.00;99.90;;;;;;4995893;28;206087;-70
2023/01/18 14:31:17;;;;;;;;;;;4.00;99.90;;;;;;5054428;28;19993;-71
2023/01/18 14:33:43;;;;;;;;;;;4.00;99.90;;;;;;4989940;28;204803;-71
2023/01/18 14:36:18;;;;;;;;;;;4.10;99.90;;;;;;5057006;28;19928;-71
2023/01/18 14:38:44;;;;;;;;;;;4.10;99.90;;;;;;5017746;28;205999;-71
2023/01/18 14:41:12;;;;;;;;;;;4.10;99.90;;;;;;5060825;28;20343;-71
2023/01/18 14:43:43;;;;;;;;;;;4.10;99.90;;;;;;5009440;28;210601;-70
2023/01/18 14:46:13;;;;;;;;;;;4.00;99.90;;;;;;5047177;28;20302;-71
2023/01/18 14:48:45;;;;;;;;;;;4.00;99.90;;;;;;4982560;28;205730;-70
2023/01/18 14:51:15;;;;;;;;;;;4.00;99.90;;;;;;5045631;28;19928;-71
2023/01/18 14:53:46;;;;;;;;;;;3.90;99.90;;;;;;5005031;28;206064;-71
2023/01/18 14:56:18;;;;;;;;;;;3.90;99.90;;;;;;5042793;28;19928;-70